sensor_id;sensor_type;location;lat;lon;timestamp;temperature;humidity
73121;DHT22;61307;49.628;-1.624;2023-07-31T00:01:52;21.60;60.90
73121;DHT22;61307;49.628;-1.624;2023-07-31T00:04:20;21.60;60.90
73121;DHT22;61307;49.628;-1.624;2023-07-31T00:06:47;21.60;61.00
73121;DHT22;61307;49.628;-1.624;2023-07-31T00:09:18;21.60;61.00
73121;DHT22;61307;49.628;-1.624;2023-07-31T00:11:45;21.60;61.00
73121;DHT22;61307;49.628;-1.624;2023-07-31T00:14:13;21.60;61.00
73121;DHT22;61307;49.628;-1.624;2023-07-31T00:16:40;21.60;61.00
73121;DHT22;61307;49.628;-1.624;2023-07-31T00:19:08;21.60;61.00
73121;DHT22;61307;49.628;-1.624;2023-07-31T00:21:35;21.60;61.10
73121;DHT22;61307;49.628;-1.624;2023-07-31T00:24:03;21.60;61.10
73121;DHT22;61307;49.628;-1.624;2023-07-31T00:26:32;21.60;61.10
73121;DHT22;61307;49.628;-1.624;2023-07-31T00:28:59;21.60;61.10
73121;DHT22;61307;49.628;-1.624;2023-07-31T00:31:26;21.50;61.00
73121;DHT22;61307;49.628;-1.624;2023-07-31T00:33:54;21.60;61.10
73121;DHT22;61307;49.628;-1.624;2023-07-31T00:36:21;21.60;61.10
73121;DHT22;61307;49.628;-1.624;2023-07-31T00:38:49;21.60;61.20
73121;DHT22;61307;49.628;-1.624;2023-07-31T00:41:16;21.60;61.20
73121;DHT22;61307;49.628;-1.624;2023-07-31T00:43:45;21.60;61.30
73121;DHT22;61307;49.628;-1.624;2023-07-31T00:46:13;21.60;61.30
73121;DHT22;61307;49.628;-1.624;2023-07-31T00:48:40;21.60;61.30
73121;DHT22;61307;49.628;-1.624;2023-07-31T00:51:08;21.60;61.30
73121;DHT22;61307;49.628;-1.624;2023-07-31T00:53:36;21.60;61.40
73121;DHT22;61307;49.628;-1.624;2023-07-31T00:56:04;21.60;61.40
73121;DHT22;61307;49.628;-1.624;2023-07-31T00:58:31;21.50;61.30
73121;DHT22;61307;49.628;-1.624;2023-07-31T01:01:05;21.50;61.30
73121;DHT22;61307;49.628;-1.624;2023-07-31T01:03:32;21.50;61.90
73121;DHT22;61307;49.628;-1.624;2023-07-31T01:06:09;21.60;61.50
73121;DHT22;61307;49.628;-1.624;2023-07-31T01:08:42;21.60;61.50
73121;DHT22;61307;49.628;-1.624;2023-07-31T01:11:17;21.50;61.40
73121;DHT22;61307;49.628;-1.624;2023-07-31T01:13:47;21.60;61.60
73121;DHT22;61307;49.628;-1.624;2023-07-31T01:16:16;21.50;61.50
73121;DHT22;61307;49.628;-1.624;2023-07-31T01:18:43;21.60;61.60
73121;DHT22;61307;49.628;-1.624;2023-07-31T01:21:21;21.50;61.50
73121;DHT22;61307;49.628;-1.624;2023-07-31T01:24:08;21.60;61.70
73121;DHT22;61307;49.628;-1.624;2023-07-31T01:26:47;21.50;61.70
73121;DHT22;61307;49.628;-1.624;2023-07-31T01:29:23;21.50;61.70
73121;DHT22;61307;49.628;-1.624;2023-07-31T01:31:53;21.60;61.80
73121;DHT22;61307;49.628;-1.624;2023-07-31T01:34:22;21.50;61.80
73121;DHT22;61307;49.628;-1.624;2023-07-31T01:36:50;21.60;61.90
73121;DHT22;61307;49.628;-1.624;2023-07-31T01:39:26;21.50;61.80
73121;DHT22;61307;49.628;-1.624;2023-07-31T01:41:55;21.50;61.80
73121;DHT22;61307;49.628;-1.624;2023-07-31T01:44:23;21.50;61.80
73121;DHT22;61307;49.628;-1.624;2023-07-31T01:46:50;21.60;61.90
73121;DHT22;61307;49.628;-1.624;2023-07-31T01:49:18;21.50;61.80
73121;DHT22;61307;49.628;-1.624;2023-07-31T01:51:45;21.50;61.80
73121;DHT22;61307;49.628;-1.624;2023-07-31T01:54:13;21.50;61.80
73121;DHT22;61307;49.628;-1.624;2023-07-31T01:56:40;21.50;61.80
73121;DHT22;61307;49.628;-1.624;2023-07-31T01:59:09;21.50;61.80
73121;DHT22;61307;49.628;-1.624;2023-07-31T02:01:36;21.60;61.90
73121;DHT22;61307;49.628;-1.624;2023-07-31T02:04:04;21.50;61.80
73121;DHT22;61307;49.628;-1.624;2023-07-31T02:06:31;21.50;61.80
73121;DHT22;61307;49.628;-1.624;2023-07-31T02:08:59;21.50;61.80
73121;DHT22;61307;49.628;-1.624;2023-07-31T02:11:26;21.50;61.80
73121;DHT22;61307;49.628;-1.624;2023-07-31T02:13:53;21.50;61.80
73121;DHT22;61307;49.628;-1.624;2023-07-31T02:16:22;21.50;61.80
73121;DHT22;61307;49.628;-1.624;2023-07-31T02:18:50;21.50;61.80
73121;DHT22;61307;49.628;-1.624;2023-07-31T02:21:17;21.50;61.80
73121;DHT22;61307;49.628;-1.624;2023-07-31T02:23:48;21.50;61.80
73121;DHT22;61307;49.628;-1.624;2023-07-31T02:26:15;21.50;61.80
73121;DHT22;61307;49.628;-1.624;2023-07-31T02:28:43;21.50;61.80
73121;DHT22;61307;49.628;-1.624;2023-07-31T02:31:10;21.50;61.80
73121;DHT22;61307;49.628;-1.624;2023-07-31T02:33:39;21.50;61.80
73121;DHT22;61307;49.628;-1.624;2023-07-31T02:36:06;21.50;61.90
73121;DHT22;61307;49.628;-1.624;2023-07-31T02:38:34;21.50;62.60
73121;DHT22;61307;49.628;-1.624;2023-07-31T02:41:01;21.50;61.80
73121;DHT22;61307;49.628;-1.624;2023-07-31T02:43:29;21.50;61.80
73121;DHT22;61307;49.628;-1.624;2023-07-31T02:45:57;21.50;61.80
73121;DHT22;61307;49.628;-1.624;2023-07-31T02:48:24;21.50;61.90
73121;DHT22;61307;49.628;-1.624;2023-07-31T02:50:53;21.50;61.90
73121;DHT22;61307;49.628;-1.624;2023-07-31T02:53:21;21.50;61.90
73121;DHT22;61307;49.628;-1.624;2023-07-31T02:55:49;21.50;62.00
73121;DHT22;61307;49.628;-1.624;2023-07-31T02:58:16;21.50;61.90
73121;DHT22;61307;49.628;-1.624;2023-07-31T03:00:44;21.50;62.00
73121;DHT22;61307;49.628;-1.624;2023-07-31T03:03:12;21.50;62.00
73121;DHT22;61307;49.628;-1.624;2023-07-31T03:05:39;21.50;62.10
73121;DHT22;61307;49.628;-1.624;2023-07-31T03:08:08;21.50;62.10
73121;DHT22;61307;49.628;-1.624;2023-07-31T03:10:35;21.50;62.10
73121;DHT22;61307;49.628;-1.624;2023-07-31T03:13:03;21.50;62.10
73121;DHT22;61307;49.628;-1.624;2023-07-31T03:15:31;21.50;62.20
73121;DHT22;61307;49.628;-1.624;2023-07-31T03:17:58;21.50;62.20
73121;DHT22;61307;49.628;-1.624;2023-07-31T03:20:25;21.50;62.30
73121;DHT22;61307;49.628;-1.624;2023-07-31T03:22:53;21.50;62.30
73121;DHT22;61307;49.628;-1.624;2023-07-31T03:25:22;21.50;62.40
73121;DHT22;61307;49.628;-1.624;2023-07-31T03:27:49;21.50;62.30
73121;DHT22;61307;49.628;-1.624;2023-07-31T03:30:17;21.50;62.40
73121;DHT22;61307;49.628;-1.624;2023-07-31T03:32:44;21.50;62.40
73121;DHT22;61307;49.628;-1.624;2023-07-31T03:35:11;21.50;62.50
73121;DHT22;61307;49.628;-1.624;2023-07-31T03:37:38;21.50;62.50
73121;DHT22;61307;49.628;-1.624;2023-07-31T03:40:06;21.50;62.50
73121;DHT22;61307;49.628;-1.624;2023-07-31T03:42:35;21.50;62.60
73121;DHT22;61307;49.628;-1.624;2023-07-31T03:45:04;21.50;62.50
73121;DHT22;61307;49.628;-1.624;2023-07-31T03:47:32;21.50;62.60
73121;DHT22;61307;49.628;-1.624;2023-07-31T03:49:59;21.50;62.60
73121;DHT22;61307;49.628;-1.624;2023-07-31T03:52:27;21.50;62.60
73121;DHT22;61307;49.628;-1.624;2023-07-31T03:55:13;21.50;62.70
73121;DHT22;61307;49.628;-1.624;2023-07-31T03:57:42;21.50;62.70
73121;DHT22;61307;49.628;-1.624;2023-07-31T04:00:10;21.50;62.70
73121;DHT22;61307;49.628;-1.624;2023-07-31T04:02:38;21.50;62.70
73121;DHT22;61307;49.628;-1.624;2023-07-31T04:05:07;21.50;62.80
73121;DHT22;61307;49.628;-1.624;2023-07-31T04:07:35;21.50;62.80
73121;DHT22;61307;49.628;-1.624;2023-07-31T04:10:03;21.50;62.80
73121;DHT22;61307;49.628;-1.624;2023-07-31T04:12:31;21.50;62.90
73121;DHT22;61307;49.628;-1.624;2023-07-31T04:15:00;21.50;62.90
73121;DHT22;61307;49.628;-1.624;2023-07-31T04:17:27;21.50;63.00
73121;DHT22;61307;49.628;-1.624;2023-07-31T04:19:58;21.50;63.00
73121;DHT22;61307;49.628;-1.624;2023-07-31T04:22:25;21.50;63.10
73121;DHT22;61307;49.628;-1.624;2023-07-31T04:24:53;21.50;63.00
73121;DHT22;61307;49.628;-1.624;2023-07-31T04:27:20;21.50;63.10
73121;DHT22;61307;49.628;-1.624;2023-07-31T04:29:48;21.50;63.10
73121;DHT22;61307;49.628;-1.624;2023-07-31T04:32:17;21.50;63.10
73121;DHT22;61307;49.628;-1.624;2023-07-31T04:34:45;21.50;63.10
73121;DHT22;61307;49.628;-1.624;2023-07-31T04:37:13;21.50;63.20
73121;DHT22;61307;49.628;-1.624;2023-07-31T04:39:40;21.50;63.20
73121;DHT22;61307;49.628;-1.624;2023-07-31T04:42:08;21.50;63.30
73121;DHT22;61307;49.628;-1.624;2023-07-31T04:44:35;21.50;63.30
73121;DHT22;61307;49.628;-1.624;2023-07-31T04:47:03;21.50;63.30
73121;DHT22;61307;49.628;-1.624;2023-07-31T04:49:34;21.50;63.30
73121;DHT22;61307;49.628;-1.624;2023-07-31T04:52:01;21.50;63.30
73121;DHT22;61307;49.628;-1.624;2023-07-31T04:54:29;21.50;63.40
73121;DHT22;61307;49.628;-1.624;2023-07-31T04:56:56;21.50;63.40
73121;DHT22;61307;49.628;-1.624;2023-07-31T04:59:24;21.50;63.50
73121;DHT22;61307;49.628;-1.624;2023-07-31T05:01:52;21.50;63.40
73121;DHT22;61307;49.628;-1.624;2023-07-31T05:04:19;21.50;63.50
73121;DHT22;61307;49.628;-1.624;2023-07-31T05:06:49;21.50;63.50
73121;DHT22;61307;49.628;-1.624;2023-07-31T05:11:54;21.50;63.60
73121;DHT22;61307;49.628;-1.624;2023-07-31T05:14:21;21.50;63.60
73121;DHT22;61307;49.628;-1.624;2023-07-31T05:16:49;21.50;63.60
73121;DHT22;61307;49.628;-1.624;2023-07-31T05:19:17;21.50;63.80
73121;DHT22;61307;49.628;-1.624;2023-07-31T05:21:44;21.50;63.70
73121;DHT22;61307;49.628;-1.624;2023-07-31T05:24:13;21.50;63.80
73121;DHT22;61307;49.628;-1.624;2023-07-31T05:26:41;21.50;63.80
73121;DHT22;61307;49.628;-1.624;2023-07-31T05:29:08;21.50;63.80
73121;DHT22;61307;49.628;-1.624;2023-07-31T05:31:35;21.40;63.60
73121;DHT22;61307;49.628;-1.624;2023-07-31T05:34:04;21.50;63.80
73121;DHT22;61307;49.628;-1.624;2023-07-31T05:36:32;21.50;63.80
73121;DHT22;61307;49.628;-1.624;2023-07-31T05:38:59;21.50;63.80
73121;DHT22;61307;49.628;-1.624;2023-07-31T05:41:33;21.50;63.80
73121;DHT22;61307;49.628;-1.624;2023-07-31T05:44:01;21.50;63.80
73121;DHT22;61307;49.628;-1.624;2023-07-31T05:46:28;21.50;63.90
73121;DHT22;61307;49.628;-1.624;2023-07-31T05:48:57;21.50;63.90
73121;DHT22;61307;49.628;-1.624;2023-07-31T05:51:26;21.50;63.90
73121;DHT22;61307;49.628;-1.624;2023-07-31T05:53:54;21.50;63.90
73121;DHT22;61307;49.628;-1.624;2023-07-31T05:56:22;21.50;63.90
73121;DHT22;61307;49.628;-1.624;2023-07-31T05:58:51;21.40;63.90
73121;DHT22;61307;49.628;-1.624;2023-07-31T06:01:18;21.50;64.00
73121;DHT22;61307;49.628;-1.624;2023-07-31T06:03:47;21.50;64.00
73121;DHT22;61307;49.628;-1.624;2023-07-31T06:06:14;21.50;64.10
73121;DHT22;61307;49.628;-1.624;2023-07-31T06:08:42;21.50;64.10
73121;DHT22;61307;49.628;-1.624;2023-07-31T06:11:09;21.50;64.10
73121;DHT22;61307;49.628;-1.624;2023-07-31T06:13:41;21.50;64.10
73121;DHT22;61307;49.628;-1.624;2023-07-31T06:16:12;21.50;64.20
73121;DHT22;61307;49.628;-1.624;2023-07-31T06:18:39;21.40;64.20
73121;DHT22;61307;49.628;-1.624;2023-07-31T06:21:07;21.50;64.20
73121;DHT22;61307;49.628;-1.624;2023-07-31T06:23:34;21.50;64.30
73121;DHT22;61307;49.628;-1.624;2023-07-31T06:26:02;21.40;64.20
73121;DHT22;61307;49.628;-1.624;2023-07-31T06:28:30;21.50;64.30
73121;DHT22;61307;49.628;-1.624;2023-07-31T06:30:57;21.50;64.30
73121;DHT22;61307;49.628;-1.624;2023-07-31T06:33:26;21.50;64.40
73121;DHT22;61307;49.628;-1.624;2023-07-31T06:35:53;21.50;64.30
73121;DHT22;61307;49.628;-1.624;2023-07-31T06:38:24;21.50;64.40
73121;DHT22;61307;49.628;-1.624;2023-07-31T06:40:52;21.40;64.30
73121;DHT22;61307;49.628;-1.624;2023-07-31T06:43:19;21.50;64.40
73121;DHT22;61307;49.628;-1.624;2023-07-31T06:45:47;21.50;64.60
73121;DHT22;61307;49.628;-1.624;2023-07-31T06:48:17;21.50;64.60
73121;DHT22;61307;49.628;-1.624;2023-07-31T06:50:46;21.40;64.40
73121;DHT22;61307;49.628;-1.624;2023-07-31T06:53:14;21.50;64.60
73121;DHT22;61307;49.628;-1.624;2023-07-31T06:55:42;21.50;64.60
73121;DHT22;61307;49.628;-1.624;2023-07-31T06:58:09;21.50;64.60
73121;DHT22;61307;49.628;-1.624;2023-07-31T07:00:36;21.50;64.50
73121;DHT22;61307;49.628;-1.624;2023-07-31T07:03:04;21.60;64.70
73121;DHT22;61307;49.628;-1.624;2023-07-31T07:05:38;21.60;64.80
73121;DHT22;61307;49.628;-1.624;2023-07-31T07:08:21;21.70;65.00
73121;DHT22;61307;49.628;-1.624;2023-07-31T07:10:48;21.70;64.80
73121;DHT22;61307;49.628;-1.624;2023-07-31T07:13:30;21.80;64.90
73121;DHT22;61307;49.628;-1.624;2023-07-31T07:15:58;21.80;64.80
73121;DHT22;61307;49.628;-1.624;2023-07-31T07:18:42;21.80;64.90
73121;DHT22;61307;49.628;-1.624;2023-07-31T07:21:27;21.80;64.90
73121;DHT22;61307;49.628;-1.624;2023-07-31T07:24:31;21.80;64.90
73121;DHT22;61307;49.628;-1.624;2023-07-31T07:27:03;21.90;65.00
73121;DHT22;61307;49.628;-1.624;2023-07-31T07:32:21;21.90;65.00
73121;DHT22;61307;49.628;-1.624;2023-07-31T07:34:52;22.00;65.10
73121;DHT22;61307;49.628;-1.624;2023-07-31T07:37:24;22.00;65.20
73121;DHT22;61307;49.628;-1.624;2023-07-31T07:39:53;22.00;65.00
73121;DHT22;61307;49.628;-1.624;2023-07-31T07:42:21;22.00;65.10
73121;DHT22;61307;49.628;-1.624;2023-07-31T07:44:48;22.00;65.10
73121;DHT22;61307;49.628;-1.624;2023-07-31T07:47:16;22.00;65.10
73121;DHT22;61307;49.628;-1.624;2023-07-31T07:49:46;22.10;65.20
73121;DHT22;61307;49.628;-1.624;2023-07-31T07:52:20;22.10;65.20
73121;DHT22;61307;49.628;-1.624;2023-07-31T07:55:03;22.10;65.20
73121;DHT22;61307;49.628;-1.624;2023-07-31T07:57:50;22.20;65.30
73121;DHT22;61307;49.628;-1.624;2023-07-31T08:00:17;22.20;65.30
73121;DHT22;61307;49.628;-1.624;2023-07-31T08:02:46;22.20;65.20
73121;DHT22;61307;49.628;-1.624;2023-07-31T08:05:14;22.20;65.20
73121;DHT22;61307;49.628;-1.624;2023-07-31T08:07:43;22.30;65.30
73121;DHT22;61307;49.628;-1.624;2023-07-31T08:10:11;22.30;65.30
73121;DHT22;61307;49.628;-1.624;2023-07-31T08:12:38;22.20;65.20
73121;DHT22;61307;49.628;-1.624;2023-07-31T08:15:07;22.30;65.30
73121;DHT22;61307;49.628;-1.624;2023-07-31T08:17:34;22.30;65.30
73121;DHT22;61307;49.628;-1.624;2023-07-31T08:20:01;22.30;65.30
73121;DHT22;61307;49.628;-1.624;2023-07-31T08:22:28;22.30;65.30
73121;DHT22;61307;49.628;-1.624;2023-07-31T08:24:55;22.30;65.30
73121;DHT22;61307;49.628;-1.624;2023-07-31T08:27:24;22.30;65.30
73121;DHT22;61307;49.628;-1.624;2023-07-31T08:29:52;22.30;65.20
73121;DHT22;61307;49.628;-1.624;2023-07-31T08:32:18;22.30;65.30
73121;DHT22;61307;49.628;-1.624;2023-07-31T08:34:45;22.30;65.30
73121;DHT22;61307;49.628;-1.624;2023-07-31T08:37:13;22.40;65.40
73121;DHT22;61307;49.628;-1.624;2023-07-31T08:39:43;22.40;65.30
73121;DHT22;61307;49.628;-1.624;2023-07-31T08:42:10;22.40;65.30
73121;DHT22;61307;49.628;-1.624;2023-07-31T08:44:40;22.40;65.20
73121;DHT22;61307;49.628;-1.624;2023-07-31T08:47:09;22.40;65.20
73121;DHT22;61307;49.628;-1.624;2023-07-31T08:49:38;22.40;65.30
73121;DHT22;61307;49.628;-1.624;2023-07-31T08:52:07;22.50;65.30
73121;DHT22;61307;49.628;-1.624;2023-07-31T08:54:37;22.50;65.30
73121;DHT22;61307;49.628;-1.624;2023-07-31T08:57:06;22.50;65.20
73121;DHT22;61307;49.628;-1.624;2023-07-31T08:59:36;22.50;65.20
73121;DHT22;61307;49.628;-1.624;2023-07-31T09:02:07;22.50;65.10
73121;DHT22;61307;49.628;-1.624;2023-07-31T09:04:36;22.40;65.90
73121;DHT22;61307;49.628;-1.624;2023-07-31T09:07:06;22.40;65.20
73121;DHT22;61307;49.628;-1.624;2023-07-31T09:09:35;22.50;65.30
73121;DHT22;61307;49.628;-1.624;2023-07-31T09:12:02;22.50;65.30
73121;DHT22;61307;49.628;-1.624;2023-07-31T09:14:33;22.50;65.30
73121;DHT22;61307;49.628;-1.624;2023-07-31T09:17:05;22.50;65.20
73121;DHT22;61307;49.628;-1.624;2023-07-31T09:19:36;22.50;65.30
73121;DHT22;61307;49.628;-1.624;2023-07-31T09:22:05;22.50;65.20
73121;DHT22;61307;49.628;-1.624;2023-07-31T09:24:34;22.50;65.20
73121;DHT22;61307;49.628;-1.624;2023-07-31T09:27:05;22.50;65.20
73121;DHT22;61307;49.628;-1.624;2023-07-31T09:29:33;22.50;65.20
73121;DHT22;61307;49.628;-1.624;2023-07-31T09:32:01;22.60;65.30
73121;DHT22;61307;49.628;-1.624;2023-07-31T09:34:37;22.50;65.20
73121;DHT22;61307;49.628;-1.624;2023-07-31T09:37:05;22.50;65.20
73121;DHT22;61307;49.628;-1.624;2023-07-31T09:39:57;22.50;65.20
73121;DHT22;61307;49.628;-1.624;2023-07-31T09:42:25;22.60;65.30
73121;DHT22;61307;49.628;-1.624;2023-07-31T09:45:03;22.60;65.30
73121;DHT22;61307;49.628;-1.624;2023-07-31T09:47:34;22.60;65.30
73121;DHT22;61307;49.628;-1.624;2023-07-31T09:50:07;22.60;65.20
73121;DHT22;61307;49.628;-1.624;2023-07-31T09:52:39;22.60;65.20
73121;DHT22;61307;49.628;-1.624;2023-07-31T09:55:07;22.60;65.10
73121;DHT22;61307;49.628;-1.624;2023-07-31T09:57:48;22.60;65.10
73121;DHT22;61307;49.628;-1.624;2023-07-31T10:00:20;22.60;65.20
73121;DHT22;61307;49.628;-1.624;2023-07-31T10:05:36;22.70;65.30
73121;DHT22;61307;49.628;-1.624;2023-07-31T10:08:04;22.70;65.20
73121;DHT22;61307;49.628;-1.624;2023-07-31T10:11:23;22.60;65.10
73121;DHT22;61307;49.628;-1.624;2023-07-31T10:14:47;22.70;65.30
73121;DHT22;61307;49.628;-1.624;2023-07-31T10:17:15;22.70;65.20
73121;DHT22;61307;49.628;-1.624;2023-07-31T10:20:03;22.70;65.10
73121;DHT22;61307;49.628;-1.624;2023-07-31T10:26:10;22.70;65.00
73121;DHT22;61307;49.628;-1.624;2023-07-31T10:28:39;22.60;64.80
73121;DHT22;61307;49.628;-1.624;2023-07-31T10:31:07;22.70;65.00
73121;DHT22;61307;49.628;-1.624;2023-07-31T10:33:35;22.60;64.70
73121;DHT22;61307;49.628;-1.624;2023-07-31T10:36:18;22.70;64.70
73121;DHT22;61307;49.628;-1.624;2023-07-31T10:38:46;22.60;64.50
73121;DHT22;61307;49.628;-1.624;2023-07-31T10:41:17;22.70;64.70
73121;DHT22;61307;49.628;-1.624;2023-07-31T10:43:48;22.70;64.70
73121;DHT22;61307;49.628;-1.624;2023-07-31T10:46:29;22.60;64.60
73121;DHT22;61307;49.628;-1.624;2023-07-31T10:51:41;22.70;64.60
73121;DHT22;61307;49.628;-1.624;2023-07-31T10:54:18;22.60;64.60
73121;DHT22;61307;49.628;-1.624;2023-07-31T10:56:50;22.70;64.60
73121;DHT22;61307;49.628;-1.624;2023-07-31T11:03:03;22.70;64.80
73121;DHT22;61307;49.628;-1.624;2023-07-31T11:08:42;22.60;64.80
73121;DHT22;61307;49.628;-1.624;2023-07-31T11:11:12;22.60;64.80
73121;DHT22;61307;49.628;-1.624;2023-07-31T11:13:44;22.60;64.80
73121;DHT22;61307;49.628;-1.624;2023-07-31T11:16:42;22.60;64.80
73121;DHT22;61307;49.628;-1.624;2023-07-31T11:19:09;22.60;64.90
73121;DHT22;61307;49.628;-1.624;2023-07-31T11:21:36;22.60;64.90
73121;DHT22;61307;49.628;-1.624;2023-07-31T11:24:04;22.60;64.90
73121;DHT22;61307;49.628;-1.624;2023-07-31T11:26:48;22.60;65.00
73121;DHT22;61307;49.628;-1.624;2023-07-31T11:29:20;22.60;65.00
73121;DHT22;61307;49.628;-1.624;2023-07-31T11:31:48;22.60;65.10
73121;DHT22;61307;49.628;-1.624;2023-07-31T11:34:20;22.60;65.00
73121;DHT22;61307;49.628;-1.624;2023-07-31T11:36:54;22.60;65.10
73121;DHT22;61307;49.628;-1.624;2023-07-31T11:39:21;22.50;65.10
73121;DHT22;61307;49.628;-1.624;2023-07-31T11:41:49;22.50;65.10
73121;DHT22;61307;49.628;-1.624;2023-07-31T11:44:16;22.50;65.10
73121;DHT22;61307;49.628;-1.624;2023-07-31T11:46:46;22.50;65.10
73121;DHT22;61307;49.628;-1.624;2023-07-31T11:49:15;22.60;65.30
73121;DHT22;61307;49.628;-1.624;2023-07-31T11:52:06;22.50;65.30
73121;DHT22;61307;49.628;-1.624;2023-07-31T11:54:48;22.50;65.50
73121;DHT22;61307;49.628;-1.624;2023-07-31T11:57:16;22.60;65.60
73121;DHT22;61307;49.628;-1.624;2023-07-31T11:59:45;22.50;65.80
73121;DHT22;61307;49.628;-1.624;2023-07-31T12:02:19;22.50;65.60
73121;DHT22;61307;49.628;-1.624;2023-07-31T12:04:48;22.60;65.90
73121;DHT22;61307;49.628;-1.624;2023-07-31T12:07:16;22.60;65.90
73121;DHT22;61307;49.628;-1.624;2023-07-31T12:16:26;22.60;66.00
73121;DHT22;61307;49.628;-1.624;2023-07-31T12:19:34;22.70;66.10
73121;DHT22;61307;49.628;-1.624;2023-07-31T12:22:15;22.70;66.20
73121;DHT22;61307;49.628;-1.624;2023-07-31T12:25:01;22.70;66.20
73121;DHT22;61307;49.628;-1.624;2023-07-31T12:28:35;22.70;66.30
73121;DHT22;61307;49.628;-1.624;2023-07-31T12:31:01;22.70;66.40
73121;DHT22;61307;49.628;-1.624;2023-07-31T12:33:40;22.70;66.40
73121;DHT22;61307;49.628;-1.624;2023-07-31T12:36:09;22.70;66.30
73121;DHT22;61307;49.628;-1.624;2023-07-31T12:38:41;22.60;66.20
73121;DHT22;61307;49.628;-1.624;2023-07-31T12:41:10;22.70;66.40
73121;DHT22;61307;49.628;-1.624;2023-07-31T12:43:43;22.70;66.40
73121;DHT22;61307;49.628;-1.624;2023-07-31T12:46:15;22.70;66.50
73121;DHT22;61307;49.628;-1.624;2023-07-31T12:48:43;22.70;66.40
73121;DHT22;61307;49.628;-1.624;2023-07-31T12:51:10;22.70;66.50
73121;DHT22;61307;49.628;-1.624;2023-07-31T12:53:37;22.70;66.40
73121;DHT22;61307;49.628;-1.624;2023-07-31T12:56:07;22.70;66.50
73121;DHT22;61307;49.628;-1.624;2023-07-31T12:58:34;22.70;66.40
73121;DHT22;61307;49.628;-1.624;2023-07-31T13:01:05;22.70;66.50
73121;DHT22;61307;49.628;-1.624;2023-07-31T13:03:37;22.70;66.60
73121;DHT22;61307;49.628;-1.624;2023-07-31T13:06:04;22.70;66.50
73121;DHT22;61307;49.628;-1.624;2023-07-31T13:08:31;22.70;66.50
73121;DHT22;61307;49.628;-1.624;2023-07-31T13:11:01;22.80;66.70
73121;DHT22;61307;49.628;-1.624;2023-07-31T13:13:29;22.70;66.50
73121;DHT22;61307;49.628;-1.624;2023-07-31T13:15:57;22.80;66.60
73121;DHT22;61307;49.628;-1.624;2023-07-31T13:18:27;22.80;66.60
73121;DHT22;61307;49.628;-1.624;2023-07-31T13:21:02;22.80;66.60
73121;DHT22;61307;49.628;-1.624;2023-07-31T13:23:33;22.80;66.70
73121;DHT22;61307;49.628;-1.624;2023-07-31T13:26:02;22.80;66.60
73121;DHT22;61307;49.628;-1.624;2023-07-31T13:28:29;22.80;66.60
73121;DHT22;61307;49.628;-1.624;2023-07-31T13:30:59;22.80;66.60
73121;DHT22;61307;49.628;-1.624;2023-07-31T13:33:26;22.80;66.70
73121;DHT22;61307;49.628;-1.624;2023-07-31T13:35:55;22.80;66.60
73121;DHT22;61307;49.628;-1.624;2023-07-31T13:38:21;22.80;66.70
73121;DHT22;61307;49.628;-1.624;2023-07-31T13:40:49;22.80;66.70
73121;DHT22;61307;49.628;-1.624;2023-07-31T13:43:15;22.80;66.60
73121;DHT22;61307;49.628;-1.624;2023-07-31T13:45:42;22.80;66.70
73121;DHT22;61307;49.628;-1.624;2023-07-31T13:48:09;22.80;66.70
73121;DHT22;61307;49.628;-1.624;2023-07-31T13:50:36;22.80;66.70
73121;DHT22;61307;49.628;-1.624;2023-07-31T13:53:04;22.80;66.70
73121;DHT22;61307;49.628;-1.624;2023-07-31T13:55:31;22.90;66.80
73121;DHT22;61307;49.628;-1.624;2023-07-31T13:57:58;22.80;66.60
73121;DHT22;61307;49.628;-1.624;2023-07-31T14:00:25;22.80;66.60
73121;DHT22;61307;49.628;-1.624;2023-07-31T14:02:54;22.80;66.60
73121;DHT22;61307;49.628;-1.624;2023-07-31T14:05:21;22.80;66.50
73121;DHT22;61307;49.628;-1.624;2023-07-31T14:07:48;22.80;66.50
73121;DHT22;61307;49.628;-1.624;2023-07-31T14:10:17;22.80;66.50
73121;DHT22;61307;49.628;-1.624;2023-07-31T14:12:43;22.90;66.70
73121;DHT22;61307;49.628;-1.624;2023-07-31T14:15:10;22.80;66.50
73121;DHT22;61307;49.628;-1.624;2023-07-31T14:17:38;22.80;66.40
73121;DHT22;61307;49.628;-1.624;2023-07-31T14:20:06;22.80;66.40
73121;DHT22;61307;49.628;-1.624;2023-07-31T14:22:33;22.80;66.40
73121;DHT22;61307;49.628;-1.624;2023-07-31T14:25:00;22.80;66.40
73121;DHT22;61307;49.628;-1.624;2023-07-31T14:27:29;22.80;66.40
73121;DHT22;61307;49.628;-1.624;2023-07-31T14:29:56;22.80;66.40
73121;DHT22;61307;49.628;-1.624;2023-07-31T14:32:23;22.80;66.40
73121;DHT22;61307;49.628;-1.624;2023-07-31T14:34:52;22.80;66.40
73121;DHT22;61307;49.628;-1.624;2023-07-31T14:37:20;22.80;66.40
73121;DHT22;61307;49.628;-1.624;2023-07-31T14:39:47;22.80;66.40
73121;DHT22;61307;49.628;-1.624;2023-07-31T14:42:15;22.80;66.40
73121;DHT22;61307;49.628;-1.624;2023-07-31T14:44:45;22.80;66.30
73121;DHT22;61307;49.628;-1.624;2023-07-31T14:47:13;22.80;66.30
73121;DHT22;61307;49.628;-1.624;2023-07-31T14:49:40;22.80;66.30
73121;DHT22;61307;49.628;-1.624;2023-07-31T14:52:07;22.80;66.30
73121;DHT22;61307;49.628;-1.624;2023-07-31T14:54:34;22.80;66.20
73121;DHT22;61307;49.628;-1.624;2023-07-31T14:57:03;22.80;66.30
73121;DHT22;61307;49.628;-1.624;2023-07-31T14:59:30;22.80;66.30
73121;DHT22;61307;49.628;-1.624;2023-07-31T15:01:58;22.80;66.30
73121;DHT22;61307;49.628;-1.624;2023-07-31T15:04:25;22.80;66.30
73121;DHT22;61307;49.628;-1.624;2023-07-31T15:06:53;22.80;66.30
73121;DHT22;61307;49.628;-1.624;2023-07-31T15:09:20;22.80;67.10
73121;DHT22;61307;49.628;-1.624;2023-07-31T15:11:47;22.80;66.50
73121;DHT22;61307;49.628;-1.624;2023-07-31T15:14:14;22.80;66.50
73121;DHT22;61307;49.628;-1.624;2023-07-31T15:16:44;22.80;66.40
73121;DHT22;61307;49.628;-1.624;2023-07-31T15:19:15;22.80;66.40
73121;DHT22;61307;49.628;-1.624;2023-07-31T15:21:45;22.80;66.40
73121;DHT22;61307;49.628;-1.624;2023-07-31T15:24:12;22.80;66.30
73121;DHT22;61307;49.628;-1.624;2023-07-31T15:26:40;22.90;66.40
73121;DHT22;61307;49.628;-1.624;2023-07-31T15:29:07;22.80;66.30
73121;DHT22;61307;49.628;-1.624;2023-07-31T15:31:38;22.90;66.40
73121;DHT22;61307;49.628;-1.624;2023-07-31T15:34:05;22.80;66.30
73121;DHT22;61307;49.628;-1.624;2023-07-31T15:36:34;22.80;66.20
73121;DHT22;61307;49.628;-1.624;2023-07-31T15:39:01;22.90;66.30
73121;DHT22;61307;49.628;-1.624;2023-07-31T15:41:28;22.80;66.20
73121;DHT22;61307;49.628;-1.624;2023-07-31T15:43:55;22.80;66.10
73121;DHT22;61307;49.628;-1.624;2023-07-31T15:46:22;22.80;66.10
73121;DHT22;61307;49.628;-1.624;2023-07-31T15:48:49;22.80;66.10
73121;DHT22;61307;49.628;-1.624;2023-07-31T15:51:19;22.80;66.10
73121;DHT22;61307;49.628;-1.624;2023-07-31T15:53:47;22.80;66.20
73121;DHT22;61307;49.628;-1.624;2023-07-31T15:56:14;22.80;66.10
73121;DHT22;61307;49.628;-1.624;2023-07-31T15:58:41;22.80;66.10
73121;DHT22;61307;49.628;-1.624;2023-07-31T16:01:08;22.80;66.10